createdAt,value
2023-02-27T00:01:00.009Z,95854.78
2023-02-27T00:03:26.332Z,95837.97
2023-02-27T00:05:52.641Z,95852.03
2023-02-27T00:08:18.926Z,95868.06
2023-02-27T00:10:45.215Z,95859.09
2023-02-27T00:13:11.521Z,95848.59
2023-02-27T00:15:37.810Z,95847.06
2023-02-27T00:18:04.093Z,95866.47
2023-02-27T00:20:30.401Z,95858.63
2023-02-27T00:22:56.697Z,95846.88
2023-02-27T00:25:22.987Z,95866.81
2023-02-27T00:27:49.290Z,95860.56
2023-02-27T00:30:15.574Z,95848.03
2023-02-27T00:32:41.912Z,95850.00
2023-02-27T00:35:08.250Z,95849.72
2023-02-27T00:37:34.572Z,95853.09
2023-02-27T00:40:00.857Z,95849.97
2023-02-27T00:42:27.181Z,95844.59
2023-02-27T00:44:53.473Z,95857.00
2023-02-27T00:47:19.761Z,95886.66
2023-02-27T00:49:46.070Z,95839.38
2023-02-27T00:52:12.354Z,95841.28
2023-02-27T00:54:38.645Z,95853.41
2023-02-27T00:57:04.961Z,95858.84
2023-02-27T00:59:31.247Z,95867.03
2023-02-27T01:01:57.527Z,95876.03
2023-02-27T01:04:23.822Z,95850.25
2023-02-27T01:06:50.110Z,95865.09
2023-02-27T01:09:16.414Z,95870.50
2023-02-27T01:11:42.707Z,95857.97
2023-02-27T01:14:08.998Z,95859.94
2023-02-27T01:16:35.362Z,95864.25
2023-02-27T01:19:01.679Z,95855.63
2023-02-27T01:21:28.269Z,95891.94
2023-02-27T01:23:54.705Z,95869.78
2023-02-27T01:26:21.014Z,95867.81
2023-02-27T01:28:47.376Z,95879.06
2023-02-27T01:31:13.864Z,95868.88
2023-02-27T01:33:40.234Z,95863.03
2023-02-27T01:36:06.537Z,95871.28
2023-02-27T01:38:32.850Z,95872.81
2023-02-27T01:40:59.201Z,95865.81
2023-02-27T01:43:25.496Z,95868.44
2023-02-27T01:45:51.822Z,95886.78
2023-02-27T01:48:18.181Z,95862.19
2023-02-27T01:50:44.465Z,95875.13
2023-02-27T01:53:10.753Z,95851.69
2023-02-27T01:55:37.058Z,95874.34
2023-02-27T01:58:03.357Z,95853.63
2023-02-27T02:00:29.656Z,95879.47
2023-02-27T02:02:55.953Z,95848.59
2023-02-27T02:05:22.230Z,95858.34
2023-02-27T02:07:48.510Z,95853.25
2023-02-27T02:10:14.817Z,95867.31
2023-02-27T02:12:41.093Z,95850.47
2023-02-27T02:15:07.400Z,95849.38
2023-02-27T02:17:33.710Z,95850.94
2023-02-27T02:19:59.998Z,95844.28
2023-02-27T02:22:26.272Z,95845.84
2023-02-27T02:24:52.589Z,95849.31
2023-02-27T02:27:18.883Z,95852.88
2023-02-27T02:29:45.195Z,95861.41
2023-02-27T02:32:11.541Z,95852.47
2023-02-27T02:34:37.852Z,95855.22
2023-02-27T02:37:04.149Z,95859.94
2023-02-27T02:39:30.449Z,95868.09
2023-02-27T02:41:56.739Z,95878.25
2023-02-27T02:44:23.021Z,95872.03
2023-02-27T02:46:49.357Z,95891.66
2023-02-27T02:49:15.670Z,95881.75
2023-02-27T02:51:41.959Z,95871.59
2023-02-27T02:54:08.269Z,95884.84
2023-02-27T02:56:34.550Z,95876.59
2023-02-27T02:59:00.859Z,95879.69
2023-02-27T03:01:27.666Z,95875.06
2023-02-27T03:03:54.106Z,95889.88
2023-02-27T03:06:20.402Z,95892.19
2023-02-27T03:08:46.715Z,95877.41
2023-02-27T03:11:13.002Z,95899.25
2023-02-27T03:13:39.288Z,95889.47
2023-02-27T03:16:05.642Z,95875.84
2023-02-27T03:18:31.952Z,95891.47
2023-02-27T03:20:58.241Z,95872.69
2023-02-27T03:23:24.537Z,95877.00
2023-02-27T03:25:50.825Z,95881.69
2023-02-27T03:28:17.107Z,95883.22
2023-02-27T03:30:43.498Z,95889.09
2023-02-27T03:33:09.844Z,95878.66
2023-02-27T03:35:36.123Z,95882.09
2023-02-27T03:38:02.427Z,95882.28
2023-02-27T03:40:28.714Z,95895.47
2023-02-27T03:42:55.008Z,95879.06
2023-02-27T03:45:21.336Z,95873.97
2023-02-27T03:47:47.626Z,95889.59
2023-02-27T03:50:13.921Z,95883.63
2023-02-27T03:52:40.289Z,95905.56
2023-02-27T03:55:06.578Z,95901.59
2023-02-27T03:57:32.873Z,95900.03
2023-02-27T03:59:59.181Z,95912.16
2023-02-27T04:02:25.475Z,95895.53
2023-02-27T04:04:51.761Z,95911.03
2023-02-27T04:07:18.050Z,95915.34
2023-02-27T04:09:44.349Z,95898.56
2023-02-27T04:12:10.637Z,95905.59
2023-02-27T04:14:36.949Z,95882.09
2023-02-27T04:17:03.219Z,95908.72
2023-02-27T04:19:29.500Z,95906.41
2023-02-27T04:21:55.808Z,95902.22
2023-02-27T04:24:22.096Z,95907.84
2023-02-27T04:26:48.403Z,95913.31
2023-02-27T04:29:14.718Z,95921.59
2023-02-27T04:31:41.107Z,95931.66
2023-02-27T04:34:07.417Z,95930.31
2023-02-27T04:36:33.986Z,95934.53
2023-02-27T04:39:00.268Z,95939.94
2023-02-27T04:41:26.838Z,95938.38
2023-02-27T04:43:53.362Z,95941.44
2023-02-27T04:46:19.647Z,95960.22
2023-02-27T04:48:45.932Z,95964.47
2023-02-27T04:51:12.229Z,95950.53
2023-02-27T04:53:38.552Z,95963.75
2023-02-27T04:56:04.849Z,95961.81
2023-02-27T04:58:31.203Z,95966.91
2023-02-27T05:00:57.489Z,95963.78
2023-02-27T05:03:23.764Z,95961.81
2023-02-27T05:05:50.056Z,95977.06
2023-02-27T05:08:16.367Z,95976.31
2023-02-27T05:10:42.652Z,95970.78
2023-02-27T05:13:08.955Z,95971.59
2023-02-27T05:15:35.284Z,95959.50
2023-02-27T05:18:01.589Z,95984.09
2023-02-27T05:20:29.834Z,95989.25
2023-02-27T05:22:56.196Z,95978.75
2023-02-27T05:25:22.484Z,95982.50
2023-02-27T05:27:48.790Z,96003.97
2023-02-27T05:30:15.077Z,95971.94
2023-02-27T05:32:41.376Z,95988.34
2023-02-27T05:35:07.694Z,95982.09
2023-02-27T05:37:33.976Z,95992.66
2023-02-27T05:40:00.275Z,95968.91
2023-02-27T05:42:26.605Z,95977.41
2023-02-27T05:44:52.909Z,95973.81
2023-02-27T05:47:19.200Z,96000.06
2023-02-27T05:49:45.500Z,95989.56
2023-02-27T05:52:11.780Z,95974.25
2023-02-27T05:54:38.109Z,95967.97
2023-02-27T05:57:04.419Z,95973.44
2023-02-27T05:59:30.724Z,95978.13
2023-02-27T06:01:57.068Z,95980.50
2023-02-27T06:04:23.417Z,95982.50
2023-02-27T06:06:49.696Z,95986.31
2023-02-27T06:09:15.992Z,95980.44
2023-02-27T06:11:42.291Z,95992.28
2023-02-27T06:14:08.562Z,95996.19
2023-02-27T06:16:34.877Z,95981.78
2023-02-27T06:19:02.979Z,95993.06
2023-02-27T06:21:30.324Z,95984.38
2023-02-27T06:23:56.611Z,96005.88
2023-02-27T06:26:23.186Z,95998.03
2023-02-27T06:28:49.499Z,96016.09
2023-02-27T06:31:15.849Z,96007.16
2023-02-27T06:33:42.193Z,96029.81
2023-02-27T06:36:08.586Z,95997.38
2023-02-27T06:38:34.927Z,96007.91
2023-02-27T06:41:01.225Z,96037.88
2023-02-27T06:43:27.519Z,96023.81
2023-02-27T06:45:53.867Z,96040.19
2023-02-27T06:48:20.213Z,96028.56
2023-02-27T06:50:46.510Z,96032.88
2023-02-27T06:53:12.820Z,96036.19
2023-02-27T06:55:39.145Z,96042.00
2023-02-27T06:58:05.423Z,96061.84
2023-02-27T07:00:31.715Z,96054.00
2023-02-27T07:02:58.042Z,96053.44
2023-02-27T07:05:24.334Z,96068.47
2023-02-27T07:07:50.761Z,96065.06
2023-02-27T07:10:17.114Z,96074.00
2023-02-27T07:12:43.412Z,96057.88
2023-02-27T07:15:09.705Z,96081.41
2023-02-27T07:17:36.009Z,96068.09
2023-02-27T07:20:02.292Z,96077.06
2023-02-27T07:22:28.578Z,96076.75
2023-02-27T07:24:54.876Z,96093.84
2023-02-27T07:27:21.174Z,96089.16
2023-02-27T07:29:47.453Z,96083.78
2023-02-27T07:32:13.793Z,96093.97
2023-02-27T07:34:40.110Z,96092.34
2023-02-27T07:37:06.403Z,96124.38
2023-02-27T07:39:32.696Z,96108.31
2023-02-27T07:41:58.959Z,96133.63
2023-02-27T07:44:25.261Z,96117.16
2023-02-27T07:46:51.594Z,96090.59
2023-02-27T07:49:17.933Z,96104.00
2023-02-27T07:51:44.233Z,96116.44
2023-02-27T07:54:10.537Z,96093.44
2023-02-27T07:56:36.830Z,96087.22
2023-02-27T07:59:03.171Z,96098.88
2023-02-27T08:01:29.530Z,96094.31
2023-02-27T08:03:55.844Z,96107.50
2023-02-27T08:06:22.121Z,96101.75
2023-02-27T08:08:48.425Z,96113.84
2023-02-27T08:11:14.714Z,96112.09
2023-02-27T08:14:00.508Z,96115.16
2023-02-27T08:16:27.771Z,96124.41
2023-02-27T08:18:54.357Z,96143.97
2023-02-27T08:21:20.657Z,96132.19
2023-02-27T08:23:46.961Z,96143.19
2023-02-27T08:26:13.249Z,96136.88
2023-02-27T08:28:39.529Z,96143.50
2023-02-27T08:31:05.881Z,96152.63
2023-02-27T08:33:32.186Z,96153.44
2023-02-27T08:35:58.499Z,96161.75
2023-02-27T08:38:26.378Z,96164.28
2023-02-27T08:40:52.798Z,96202.63
2023-02-27T08:43:19.082Z,96172.06
2023-02-27T08:45:45.440Z,96174.78
2023-02-27T08:48:11.752Z,96167.50
2023-02-27T08:50:38.115Z,96189.75
2023-02-27T08:53:04.432Z,96185.06
2023-02-27T08:55:30.746Z,96201.91
2023-02-27T08:57:57.035Z,96197.44
2023-02-27T09:00:23.403Z,96205.66
2023-02-27T09:02:50.023Z,96190.25
2023-02-27T09:05:16.375Z,96205.16
2023-02-27T09:07:42.704Z,96218.03
2023-02-27T09:10:08.982Z,96212.78
2023-02-27T09:12:35.288Z,96228.41
2023-02-27T09:15:01.600Z,96241.69
2023-02-27T09:17:27.906Z,96221.41
2023-02-27T09:19:56.524Z,96221.78
2023-02-27T09:22:23.695Z,96230.47
2023-02-27T09:24:49.996Z,96235.13
2023-02-27T09:27:16.471Z,96237.75
2023-02-27T09:29:42.795Z,96245.00
2023-02-27T09:32:09.203Z,96232.06
2023-02-27T09:34:35.514Z,96230.91
2023-02-27T09:37:01.817Z,96234.16
2023-02-27T09:39:28.088Z,96231.91
2023-02-27T09:41:54.370Z,96252.72
2023-02-27T09:44:27.944Z,96246.88
2023-02-27T09:46:59.855Z,96258.91
2023-02-27T09:49:26.141Z,96254.28
2023-02-27T09:51:53.435Z,96253.31
2023-02-27T09:54:19.844Z,96262.34
2023-02-27T09:56:46.147Z,96269.56
2023-02-27T09:59:12.447Z,96258.78
2023-02-27T10:01:38.753Z,96262.00
2023-02-27T10:04:05.057Z,96267.09
2023-02-27T10:06:31.332Z,96271.13
2023-02-27T10:08:57.608Z,96293.69
2023-02-27T10:11:23.920Z,96284.09
2023-02-27T10:13:50.219Z,96278.19
2023-02-27T10:16:16.564Z,96297.16
2023-02-27T10:18:42.913Z,96304.19
2023-02-27T10:21:09.233Z,96297.06
2023-02-27T10:23:35.528Z,96296.06
2023-02-27T10:26:01.996Z,96306.50
2023-02-27T10:28:28.337Z,96300.81
2023-02-27T10:30:54.700Z,96295.72
2023-02-27T10:33:21.078Z,96296.19
2023-02-27T10:35:47.381Z,96292.03
2023-02-27T10:38:13.689Z,96308.25
2023-02-27T10:40:39.999Z,96293.09
2023-02-27T10:43:06.565Z,96313.78
2023-02-27T10:45:32.902Z,96308.16
2023-02-27T10:47:59.292Z,96305.84
2023-02-27T10:50:25.590Z,96308.44
2023-02-27T10:52:51.889Z,96314.34
2023-02-27T10:55:18.192Z,96314.16
2023-02-27T10:57:44.487Z,96323.28
2023-02-27T11:00:10.765Z,96323.78
2023-02-27T11:02:37.269Z,96332.00
2023-02-27T11:05:03.676Z,96330.56
2023-02-27T11:07:29.971Z,96320.19
2023-02-27T11:09:56.280Z,96325.00
2023-02-27T11:12:22.663Z,96324.72
2023-02-27T11:14:48.988Z,96332.78
2023-02-27T11:17:15.298Z,96324.16
2023-02-27T11:19:41.581Z,96320.69
2023-02-27T11:22:07.874Z,96326.03
2023-02-27T11:24:34.186Z,96329.19
2023-02-27T11:27:00.477Z,96312.03
2023-02-27T11:29:26.758Z,96323.91
2023-02-27T11:31:53.151Z,96329.19
2023-02-27T11:34:19.481Z,96318.88
2023-02-27T11:36:45.781Z,96339.47
2023-02-27T11:39:12.085Z,96330.34
2023-02-27T11:41:38.364Z,96326.16
2023-02-27T11:44:04.645Z,96335.59
2023-02-27T11:46:47.829Z,96319.97
2023-02-27T11:49:14.887Z,96331.63
2023-02-27T11:51:41.205Z,96326.22
2023-02-27T11:54:07.488Z,96313.03
2023-02-27T11:56:35.989Z,96314.75
2023-02-27T11:59:02.499Z,96314.25
2023-02-27T12:01:29.038Z,96315.13
2023-02-27T12:03:55.614Z,96327.09
2023-02-27T12:06:21.914Z,96317.50
2023-02-27T12:08:48.213Z,96317.84
2023-02-27T12:11:14.902Z,96314.69
2023-02-27T12:13:41.313Z,96319.94
2023-02-27T12:16:07.698Z,96346.31
2023-02-27T12:18:34.085Z,96315.50
2023-02-27T12:21:00.374Z,96324.84
2023-02-27T12:23:26.669Z,96326.06
2023-02-27T12:25:52.956Z,96345.94
2023-02-27T12:28:19.251Z,96335.13
2023-02-27T12:30:45.526Z,96326.88
2023-02-27T12:33:11.801Z,96330.09
2023-02-27T12:35:38.184Z,96324.25
2023-02-27T12:38:06.951Z,96333.28
2023-02-27T12:40:34.762Z,96328.31
2023-02-27T12:43:01.071Z,96331.84
2023-02-27T12:45:27.400Z,96331.19
2023-02-27T12:47:53.702Z,96336.47
2023-02-27T12:50:20.010Z,96329.47
2023-02-27T12:52:46.304Z,96321.88
2023-02-27T12:55:12.683Z,96332.97
2023-02-27T12:57:38.977Z,96335.00
2023-02-27T13:00:05.264Z,96324.81
2023-02-27T13:02:31.559Z,96331.75
2023-02-27T13:04:57.873Z,96328.16
2023-02-27T13:07:24.173Z,96336.28
2023-02-27T13:09:50.475Z,96326.56
2023-02-27T13:12:16.778Z,96335.59
2023-02-27T13:14:43.080Z,96322.72
2023-02-27T13:17:09.426Z,96327.28
2023-02-27T13:19:35.767Z,96328.53
2023-02-27T13:22:02.046Z,96330.38
2023-02-27T13:24:28.350Z,96329.66
2023-02-27T13:26:54.667Z,96334.28
2023-02-27T13:29:20.957Z,96330.28
2023-02-27T13:31:47.354Z,96344.28
2023-02-27T13:34:13.697Z,96353.16
2023-02-27T13:36:39.999Z,96324.25
2023-02-27T13:39:06.296Z,96329.44
2023-02-27T13:41:34.847Z,96337.22
2023-02-27T13:44:02.212Z,96321.16
2023-02-27T13:46:28.509Z,96323.97
2023-02-27T13:48:54.921Z,96327.84
2023-02-27T13:51:21.218Z,96319.63
2023-02-27T13:53:47.506Z,96325.78
2023-02-27T13:56:13.800Z,96332.19
2023-02-27T13:58:40.104Z,96325.03
2023-02-27T14:01:06.411Z,96318.50
2023-02-27T14:03:32.713Z,96319.69
2023-02-27T14:05:59.017Z,96332.66
2023-02-27T14:08:25.296Z,96335.91
2023-02-27T14:10:51.598Z,96320.50
2023-02-27T14:13:17.888Z,96337.28
2023-02-27T14:15:44.199Z,96336.78
2023-02-27T14:18:20.100Z,96323.38
2023-02-27T14:20:49.201Z,96341.06
2023-02-27T14:23:15.606Z,96335.72
2023-02-27T14:25:41.906Z,96331.44
2023-02-27T14:28:08.199Z,96337.44
2023-02-27T14:30:34.512Z,96320.84
2023-02-27T14:33:00.785Z,96335.91
2023-02-27T14:35:27.117Z,96350.13
2023-02-27T14:37:53.468Z,96331.44
2023-02-27T14:40:28.211Z,96343.28
2023-02-27T14:42:55.928Z,96347.84
2023-02-27T14:45:24.335Z,96344.91
2023-02-27T14:47:50.862Z,96339.38
2023-02-27T14:50:17.163Z,96346.09
2023-02-27T14:52:43.450Z,96342.56
2023-02-27T14:55:09.742Z,96343.34
2023-02-27T14:57:36.087Z,96336.75
2023-02-27T15:00:02.409Z,96336.94
2023-02-27T15:02:28.695Z,96342.88
2023-02-27T15:04:54.994Z,96362.50
2023-02-27T15:07:21.612Z,96337.94
2023-02-27T15:09:47.950Z,96339.63
2023-02-27T15:12:14.258Z,96334.78
2023-02-27T15:14:40.611Z,96334.56
2023-02-27T15:17:06.930Z,96354.53
2023-02-27T15:19:33.240Z,96343.53
2023-02-27T15:21:59.573Z,96355.19
2023-02-27T15:24:25.867Z,96348.25
2023-02-27T15:26:52.198Z,96354.53
2023-02-27T15:29:18.499Z,96355.78
2023-02-27T15:31:44.828Z,96347.09
2023-02-27T15:34:11.164Z,96338.59
2023-02-27T15:36:37.453Z,96357.34
2023-02-27T15:39:03.741Z,96356.56
2023-02-27T15:41:30.091Z,96362.81
2023-02-27T15:43:56.416Z,96358.50
2023-02-27T15:46:22.839Z,96362.91
2023-02-27T15:48:49.239Z,96371.91
2023-02-27T15:51:15.533Z,96374.84
2023-02-27T15:53:42.891Z,96365.00
2023-02-27T15:56:09.292Z,96367.38
2023-02-27T15:58:35.626Z,96378.22
2023-02-27T16:01:02.073Z,96371.53
2023-02-27T16:03:28.459Z,96390.00
2023-02-27T16:05:54.814Z,96379.91
2023-02-27T16:08:21.132Z,96382.25
2023-02-27T16:10:47.454Z,96368.94
2023-02-27T16:13:13.762Z,96369.31
2023-02-27T16:15:40.092Z,96382.91
2023-02-27T16:18:06.413Z,96386.75
2023-02-27T16:20:32.708Z,96379.69
2023-02-27T16:22:58.990Z,96390.25
2023-02-27T16:25:25.280Z,96399.19
2023-02-27T16:27:51.568Z,96392.84
2023-02-27T16:30:17.850Z,96403.94
2023-02-27T16:32:44.357Z,96416.69
2023-02-27T16:35:10.697Z,96409.97
2023-02-27T16:37:36.983Z,96400.19
2023-02-27T16:40:03.296Z,96418.47
2023-02-27T16:42:29.583Z,96432.41
2023-02-27T16:44:55.865Z,96432.34
2023-02-27T16:47:22.151Z,96426.06
2023-02-27T16:49:48.441Z,96433.47
2023-02-27T16:52:14.727Z,96446.03
2023-02-27T16:54:41.112Z,96438.00
2023-02-27T16:57:07.400Z,96444.94
2023-02-27T16:59:33.679Z,96431.69
2023-02-27T17:01:59.994Z,96446.69
2023-02-27T17:04:26.396Z,96437.34
2023-02-27T17:06:52.770Z,96442.75
2023-02-27T17:09:19.082Z,96437.69
2023-02-27T17:11:45.365Z,96452.16
2023-02-27T17:14:11.693Z,96441.69
2023-02-27T17:16:38.070Z,96455.53
2023-02-27T17:19:04.410Z,96461.97
2023-02-27T17:21:30.689Z,96470.97
2023-02-27T17:23:56.992Z,96464.69
2023-02-27T17:26:23.295Z,96459.94
2023-02-27T17:28:49.592Z,96466.22
2023-02-27T17:31:15.900Z,96467.38
2023-02-27T17:33:42.188Z,96464.53
2023-02-27T17:36:08.484Z,96477.41
2023-02-27T17:38:34.782Z,96453.88
2023-02-27T17:41:01.064Z,96476.19
2023-02-27T17:43:27.342Z,96487.88
2023-02-27T17:45:53.727Z,96490.22
2023-02-27T17:48:20.022Z,96496.25
2023-02-27T17:50:46.307Z,96489.00
2023-02-27T17:53:12.621Z,96495.84
2023-02-27T17:55:40.167Z,96510.75
2023-02-27T17:58:06.651Z,96484.91
2023-02-27T18:00:33.005Z,96509.19
2023-02-27T18:02:59.330Z,96487.03
2023-02-27T18:05:25.676Z,96499.66
2023-02-27T18:07:54.032Z,96498.00
2023-02-27T18:10:21.624Z,96483.19
2023-02-27T18:12:47.897Z,96486.59
2023-02-27T18:15:14.194Z,96494.56
2023-02-27T18:17:40.463Z,96508.66
2023-02-27T18:20:06.730Z,96501.25
2023-02-27T18:22:33.045Z,96501.59
2023-02-27T18:24:59.344Z,96501.25
2023-02-27T18:27:25.619Z,96504.34
2023-02-27T18:29:51.915Z,96522.28
2023-02-27T18:32:18.239Z,96503.97
2023-02-27T18:34:44.573Z,96502.31
2023-02-27T18:37:10.907Z,96510.00
2023-02-27T18:39:37.219Z,96503.66
2023-02-27T18:42:05.868Z,96512.66
2023-02-27T18:44:32.931Z,96514.94
2023-02-27T18:46:59.240Z,96521.38
2023-02-27T18:49:25.546Z,96516.53
2023-02-27T18:51:51.852Z,96512.03
2023-02-27T18:54:18.125Z,96515.47
2023-02-27T18:56:44.428Z,96520.78
2023-02-27T18:59:10.732Z,96529.66
2023-02-27T19:01:37.102Z,96513.44
2023-02-27T19:04:03.565Z,96509.47
2023-02-27T19:06:30.462Z,96522.25
2023-02-27T19:08:56.954Z,96521.47
2023-02-27T19:11:23.237Z,96521.75
2023-02-27T19:13:49.577Z,96503.03
2023-02-27T19:16:15.929Z,96520.66
2023-02-27T19:18:42.288Z,96505.16
2023-02-27T19:21:08.623Z,96509.03
2023-02-27T19:23:34.917Z,96542.19
2023-02-27T19:26:01.210Z,96516.47
2023-02-27T19:28:27.527Z,96510.19
2023-02-27T19:30:53.821Z,96507.72
2023-02-27T19:33:20.102Z,96508.56
2023-02-27T19:35:46.441Z,96509.72
2023-02-27T19:38:12.737Z,96514.34
2023-02-27T19:40:39.026Z,96506.56
2023-02-27T19:43:05.332Z,96520.66
2023-02-27T19:45:31.618Z,96508.16
2023-02-27T19:47:57.906Z,96512.94
2023-02-27T19:50:24.202Z,96515.47
2023-02-27T19:52:50.496Z,96518.81
2023-02-27T19:55:16.796Z,96506.63
2023-02-27T19:57:43.107Z,96520.84
2023-02-27T20:00:09.442Z,96508.69
2023-02-27T20:02:35.751Z,96511.66
2023-02-27T20:05:02.056Z,96510.94
2023-02-27T20:07:28.328Z,96516.09
2023-02-27T20:09:54.618Z,96504.69
2023-02-27T20:12:20.953Z,96510.13
2023-02-27T20:14:47.228Z,96524.72
2023-02-27T20:17:13.504Z,96519.13
2023-02-27T20:19:39.802Z,96517.19
2023-02-27T20:22:06.094Z,96523.25
2023-02-27T20:24:32.383Z,96523.72
2023-02-27T20:26:59.243Z,96547.97
2023-02-27T20:29:25.630Z,96547.41
2023-02-27T20:31:51.992Z,96524.06
2023-02-27T20:34:18.386Z,96524.06
2023-02-27T20:36:44.694Z,96529.44
2023-02-27T20:39:10.990Z,96534.09
2023-02-27T20:41:37.299Z,96537.81
2023-02-27T20:44:03.574Z,96548.66
2023-02-27T20:46:29.897Z,96552.84
2023-02-27T20:48:56.212Z,96547.09
2023-02-27T20:51:22.493Z,96541.63
2023-02-27T20:53:48.773Z,96542.97
2023-02-27T20:56:15.074Z,96541.66
2023-02-27T20:58:41.379Z,96538.94
2023-02-27T21:01:07.693Z,96535.25
2023-02-27T21:03:38.614Z,96554.63
2023-02-27T21:06:05.155Z,96551.34
2023-02-27T21:08:31.427Z,96533.72
2023-02-27T21:10:57.736Z,96551.59
2023-02-27T21:13:24.040Z,96544.88
2023-02-27T21:15:50.358Z,96537.59
2023-02-27T21:18:16.839Z,96534.84
2023-02-27T21:20:43.123Z,96566.06
2023-02-27T21:23:09.401Z,96552.44
2023-02-27T21:25:35.706Z,96552.94
2023-02-27T21:28:02.062Z,96537.00
2023-02-27T21:30:28.366Z,96541.56
2023-02-27T21:32:54.676Z,96541.78
2023-02-27T21:35:20.961Z,96536.53
2023-02-27T21:37:47.259Z,96533.88
2023-02-27T21:40:13.579Z,96525.56
2023-02-27T21:42:39.873Z,96520.09
2023-02-27T21:45:06.151Z,96530.44
2023-02-27T21:47:32.446Z,96542.75
2023-02-27T21:49:58.743Z,96540.81
2023-02-27T21:52:25.019Z,96534.09
2023-02-27T21:54:51.316Z,96527.63
2023-02-27T21:57:17.616Z,96524.31
2023-02-27T21:59:43.906Z,96550.16
2023-02-27T22:02:10.202Z,96533.06
2023-02-27T22:04:36.475Z,96537.47
2023-02-27T22:07:02.763Z,96544.00
2023-02-27T22:09:29.075Z,96541.94
2023-02-27T22:11:55.363Z,96532.53
2023-02-27T22:14:21.637Z,96537.78
2023-02-27T22:16:47.933Z,96538.56
2023-02-27T22:19:14.237Z,96533.19
2023-02-27T22:21:40.539Z,96530.38
2023-02-27T22:24:06.883Z,96548.59
2023-02-27T22:26:33.162Z,96534.69
2023-02-27T22:28:59.472Z,96531.53
2023-02-27T22:31:25.838Z,96544.59
2023-02-27T22:33:52.156Z,96533.88
2023-02-27T22:36:18.447Z,96542.06
2023-02-27T22:38:44.768Z,96540.72
2023-02-27T22:41:11.045Z,96537.53
2023-02-27T22:43:37.337Z,96553.13
2023-02-27T22:46:03.650Z,96539.94
2023-02-27T22:48:29.946Z,96547.69
2023-02-27T22:50:56.233Z,96546.41
2023-02-27T22:53:22.551Z,96550.19
2023-02-27T22:55:48.862Z,96547.22
2023-02-27T22:58:15.156Z,96539.97
2023-02-27T23:00:41.451Z,96555.91
2023-02-27T23:03:07.755Z,96542.69
2023-02-27T23:05:34.031Z,96542.66
2023-02-27T23:08:00.324Z,96537.22
2023-02-27T23:10:26.597Z,96544.97
2023-02-27T23:12:52.877Z,96547.00
2023-02-27T23:15:19.256Z,96557.94
2023-02-27T23:17:56.524Z,96552.47
2023-02-27T23:20:24.525Z,96557.47
2023-02-27T23:22:50.813Z,96538.38
2023-02-27T23:25:17.103Z,96544.06
2023-02-27T23:27:43.450Z,96544.97
2023-02-27T23:30:09.745Z,96548.25
2023-02-27T23:32:36.040Z,96551.22
2023-02-27T23:35:02.382Z,96538.59
2023-02-27T23:37:28.665Z,96560.09
2023-02-27T23:39:54.949Z,96542.47
2023-02-27T23:42:21.243Z,96544.19
2023-02-27T23:44:47.525Z,96537.94
2023-02-27T23:47:13.819Z,96546.78
2023-02-27T23:49:40.142Z,96542.03
2023-02-27T23:52:06.439Z,96534.72
2023-02-27T23:54:32.731Z,96535.63
2023-02-27T23:56:59.039Z,96545.66
2023-02-27T23:59:25.332Z,96536.00
